Time;durP1;ratioP1;P1;durP2;ratioP2;P2;SDS_P1;SDS_P2;PMS_P1;PMS_P2;Temp;Humidity;BMP_temperature;BMP_pressure;BME280_temperature;BME280_humidity;BME280_pressure;Samples;Min_cycle;Max_cycle;Signal;HPM_P1;HPM_P2
2022/05/20 00:00:07;;;;;;;13.90;12.50;;;;;;;;;;4997042;28;20701;-72
2022/05/20 00:02:32;;;;;;;15.57;12.63;;;;;;;;;;5008615;28;20191;-72
2022/05/20 00:04:59;;;;;;;15.40;13.33;;;;;;;;;;5008200;28;20215;-73
2022/05/20 00:07:24;;;;;;;15.37;13.73;;;;;;;;;;5010777;28;20183;-72
2022/05/20 00:09:50;;;;;;;18.43;15.80;;;;;;;;;;5018679;28;20218;-72
2022/05/20 00:12:15;;;;;;;17.17;14.97;;;;;;;;;;5009980;28;20219;-72
2022/05/20 00:14:40;;;;;;;16.23;13.87;;;;;;;;;;5010165;28;20182;-72
2022/05/20 00:17:05;;;;;;;19.10;16.63;;;;;;;;;;5005536;28;20588;-72
2022/05/20 00:19:31;;;;;;;16.93;14.60;;;;;;;;;;5007410;28;20186;-72
2022/05/20 00:21:56;;;;;;;21.40;14.90;;;;;;;;;;5013657;28;20190;-72
2022/05/20 00:24:22;;;;;;;19.50;15.73;;;;;;;;;;5009949;28;20744;-72
2022/05/20 00:26:47;;;;;;;21.10;16.50;;;;;;;;;;5013990;28;20257;-72
2022/05/20 00:29:12;;;;;;;18.93;16.93;;;;;;;;;;5023648;28;20620;-72
2022/05/20 00:31:37;;;;;;;26.17;20.17;;;;;;;;;;5013345;28;20580;-72
2022/05/20 00:34:03;;;;;;;22.37;17.93;;;;;;;;;;5010935;28;20177;-72
2022/05/20 00:36:28;;;;;;;31.60;21.50;;;;;;;;;;5015111;28;20210;-72
2022/05/20 00:38:54;;;;;;;31.33;22.43;;;;;;;;;;5009156;28;20171;-72
2022/05/20 00:41:19;;;;;;;20.43;18.17;;;;;;;;;;5013558;28;20205;-72
2022/05/20 00:43:45;;;;;;;26.97;20.80;;;;;;;;;;5010949;28;20182;-73
2022/05/20 00:46:13;;;;;;;22.37;19.97;;;;;;;;;;5013605;28;20190;-73
2022/05/20 00:48:39;;;;;;;20.50;17.50;;;;;;;;;;5009170;28;20312;-73
2022/05/20 00:51:09;;;;;;;28.20;20.70;;;;;;;;;;5014686;28;20696;-73
2022/05/20 00:53:37;;;;;;;25.70;20.30;;;;;;;;;;5029591;28;20209;-72
2022/05/20 00:56:03;;;;;;;27.67;20.57;;;;;;;;;;5013338;28;20181;-73
2022/05/20 00:58:28;;;;;;;29.73;22.07;;;;;;;;;;5012770;28;20190;-73
2022/05/20 01:00:55;;;;;;;24.20;20.83;;;;;;;;;;5013990;28;20195;-73
2022/05/20 01:03:23;;;;;;;27.43;20.80;;;;;;;;;;5014834;28;21586;-71
2022/05/20 01:05:49;;;;;;;26.23;20.07;;;;;;;;;;5009908;28;20697;-72
2022/05/20 01:08:16;;;;;;;25.93;20.53;;;;;;;;;;4995724;28;20183;-72
2022/05/20 01:10:41;;;;;;;28.63;21.67;;;;;;;;;;5022119;28;20279;-72
2022/05/20 01:13:07;;;;;;;27.10;22.10;;;;;;;;;;5012425;28;20366;-72
2022/05/20 01:15:32;;;;;;;28.87;22.30;;;;;;;;;;5009228;28;20182;-72
2022/05/20 01:17:58;;;;;;;32.60;23.40;;;;;;;;;;5010248;28;20613;-72
2022/05/20 01:20:25;;;;;;;36.10;23.73;;;;;;;;;;5024056;28;20213;-72
2022/05/20 01:22:53;;;;;;;28.27;20.13;;;;;;;;;;5011205;28;20719;-72
2022/05/20 01:25:18;;;;;;;23.37;19.80;;;;;;;;;;5012575;28;20234;-73
2022/05/20 01:27:43;;;;;;;27.57;21.13;;;;;;;;;;5010874;28;20637;-72
2022/05/20 01:30:09;;;;;;;27.73;23.07;;;;;;;;;;5027201;28;20274;-72
2022/05/20 01:32:35;;;;;;;28.57;20.87;;;;;;;;;;5013456;28;20206;-72
2022/05/20 01:35:01;;;;;;;34.63;24.90;;;;;;;;;;5017321;28;20671;-72
2022/05/20 01:37:26;;;;;;;37.10;25.70;;;;;;;;;;5012920;28;20193;-73
2022/05/20 01:39:51;;;;;;;36.57;26.20;;;;;;;;;;5003568;28;20179;-72
2022/05/20 01:42:28;;;;;;;28.73;24.27;;;;;;;;;;5013121;28;20221;-72
2022/05/20 01:44:57;;;;;;;40.50;27.57;;;;;;;;;;5016203;28;20193;-72
2022/05/20 01:47:39;;;;;;;35.87;26.80;;;;;;;;;;5012419;28;20734;-72
2022/05/20 01:50:04;;;;;;;35.53;25.20;;;;;;;;;;5015016;28;20191;-73
2022/05/20 01:52:32;;;;;;;34.00;25.50;;;;;;;;;;5027893;28;20214;-72
2022/05/20 01:55:07;;;;;;;40.40;28.90;;;;;;;;;;5010634;28;20671;-72
2022/05/20 01:57:35;;;;;;;42.30;30.67;;;;;;;;;;5013663;28;20610;-72
2022/05/20 02:00:04;;;;;;;41.03;29.80;;;;;;;;;;5014225;28;20309;-72
2022/05/20 02:02:42;;;;;;;38.30;28.43;;;;;;;;;;5014480;28;20240;-73
2022/05/20 02:05:18;;;;;;;45.23;31.87;;;;;;;;;;5017203;28;20187;-72
2022/05/20 02:07:45;;;;;;;36.40;27.27;;;;;;;;;;5010962;28;20187;-73
2022/05/20 02:10:21;;;;;;;48.83;31.43;;;;;;;;;;5018649;28;20189;-73
2022/05/20 02:12:49;;;;;;;47.00;30.80;;;;;;;;;;5018042;28;20297;-72
2022/05/20 02:15:35;;;;;;;47.93;32.50;;;;;;;;;;5011110;28;20175;-72
2022/05/20 02:18:02;;;;;;;45.67;29.10;;;;;;;;;;5010099;28;20186;-72
2022/05/20 02:20:34;;;;;;;47.87;31.33;;;;;;;;;;5012407;28;20203;-72
2022/05/20 02:23:02;;;;;;;40.03;28.00;;;;;;;;;;5012400;28;20190;-73
2022/05/20 02:25:29;;;;;;;45.83;32.53;;;;;;;;;;5013118;28;20321;-73
2022/05/20 02:27:58;;;;;;;48.83;30.50;;;;;;;;;;5017313;28;20179;-73
2022/05/20 02:30:25;;;;;;;49.53;33.67;;;;;;;;;;5016414;28;20178;-74
2022/05/20 02:32:51;;;;;;;43.50;29.60;;;;;;;;;;5012211;28;20206;-73
2022/05/20 02:35:16;;;;;;;43.80;30.20;;;;;;;;;;5013831;28;20186;-72
2022/05/20 02:37:41;;;;;;;48.63;33.27;;;;;;;;;;5012314;28;20194;-72
2022/05/20 02:40:08;;;;;;;54.17;35.10;;;;;;;;;;5009783;28;20183;-72
2022/05/20 02:42:34;;;;;;;46.83;31.47;;;;;;;;;;5013318;28;20191;-72
2022/05/20 02:45:00;;;;;;;53.37;32.37;;;;;;;;;;5031921;28;20631;-72
2022/05/20 02:47:26;;;;;;;49.83;32.07;;;;;;;;;;5016165;28;20242;-72
2022/05/20 02:49:51;;;;;;;44.53;29.77;;;;;;;;;;5010872;28;20183;-72
2022/05/20 02:52:16;;;;;;;45.90;29.57;;;;;;;;;;5010680;28;20585;-72
2022/05/20 02:54:41;;;;;;;44.30;28.10;;;;;;;;;;5012343;28;20179;-72
2022/05/20 02:57:06;;;;;;;40.67;28.27;;;;;;;;;;5012811;28;20672;-72
2022/05/20 03:04:59;;;;;;;52.03;32.80;;;;;;;;;;5015624;28;20783;-72
2022/05/20 03:07:25;;;;;;;52.37;33.77;;;;;;;;;;5030419;28;20178;-72
2022/05/20 03:09:51;;;;;;;50.53;31.53;;;;;;;;;;5011487;28;20183;-73
2022/05/20 03:12:17;;;;;;;55.30;35.20;;;;;;;;;;5016991;28;20211;-74
2022/05/20 03:14:42;;;;;;;50.23;32.17;;;;;;;;;;5017268;28;20185;-74
2022/05/20 03:17:08;;;;;;;48.33;31.50;;;;;;;;;;5018675;28;20178;-72
2022/05/20 03:19:33;;;;;;;49.77;31.80;;;;;;;;;;5011792;28;20668;-72
2022/05/20 03:21:58;;;;;;;43.83;28.07;;;;;;;;;;5011417;28;20277;-74
2022/05/20 03:24:23;;;;;;;49.27;32.27;;;;;;;;;;5010357;28;20213;-74
2022/05/20 03:26:49;;;;;;;47.43;30.33;;;;;;;;;;5011855;28;20668;-74
2022/05/20 03:29:15;;;;;;;50.47;33.57;;;;;;;;;;5010413;28;20211;-74
2022/05/20 03:31:42;;;;;;;56.20;35.40;;;;;;;;;;5014241;28;20300;-72
2022/05/20 03:34:08;;;;;;;60.67;36.97;;;;;;;;;;5014821;28;20187;-72
2022/05/20 03:36:38;;;;;;;56.50;33.93;;;;;;;;;;5011175;28;20653;-73
2022/05/20 03:39:03;;;;;;;53.77;34.17;;;;;;;;;;5004256;28;20203;-73
2022/05/20 03:41:29;;;;;;;51.37;34.07;;;;;;;;;;5004648;28;20243;-72
2022/05/20 03:43:54;;;;;;;52.90;34.63;;;;;;;;;;5011195;28;20182;-73
2022/05/20 03:46:20;;;;;;;49.20;33.63;;;;;;;;;;5014166;28;20266;-73
2022/05/20 03:48:45;;;;;;;55.87;34.83;;;;;;;;;;5013307;28;20174;-72
2022/05/20 03:51:11;;;;;;;57.97;37.00;;;;;;;;;;5009785;28;20210;-73
2022/05/20 03:53:36;;;;;;;51.70;32.80;;;;;;;;;;5014936;28;20217;-73
2022/05/20 03:56:02;;;;;;;53.63;35.23;;;;;;;;;;5014853;28;20179;-73
2022/05/20 03:58:27;;;;;;;50.87;34.47;;;;;;;;;;5015304;28;20266;-73
2022/05/20 04:03:40;;;;;;;53.37;34.10;;;;;;;;;;5016150;28;20225;-73
2022/05/20 04:06:05;;;;;;;46.00;32.10;;;;;;;;;;5005216;28;20175;-74
2022/05/20 04:08:30;;;;;;;44.97;31.10;;;;;;;;;;5012849;28;20186;-73
2022/05/20 04:10:55;;;;;;;36.27;29.13;;;;;;;;;;5018930;28;20657;-73
2022/05/20 04:13:21;;;;;;;35.83;27.50;;;;;;;;;;5026124;28;20207;-73
2022/05/20 04:15:46;;;;;;;36.43;27.83;;;;;;;;;;5013695;28;20182;-73
2022/05/20 04:18:11;;;;;;;34.83;24.93;;;;;;;;;;5012681;28;20182;-72
2022/05/20 04:20:36;;;;;;;34.30;27.27;;;;;;;;;;5021370;28;20204;-74
2022/05/20 04:23:01;;;;;;;37.27;28.23;;;;;;;;;;5016650;28;20622;-74
2022/05/20 04:25:27;;;;;;;43.63;29.90;;;;;;;;;;5014993;28;20179;-72
2022/05/20 04:27:52;;;;;;;43.57;33.23;;;;;;;;;;5012681;28;20270;-73
2022/05/20 04:30:17;;;;;;;57.27;39.03;;;;;;;;;;5010831;28;20182;-72
2022/05/20 04:32:42;;;;;;;50.83;37.47;;;;;;;;;;5010272;28;20256;-72
2022/05/20 04:35:07;;;;;;;57.43;39.67;;;;;;;;;;5027534;28;20182;-72
2022/05/20 04:37:33;;;;;;;63.27;41.47;;;;;;;;;;5014597;28;20182;-72
2022/05/20 04:39:58;;;;;;;57.03;39.90;;;;;;;;;;5008853;28;20195;-72
2022/05/20 04:47:51;;;;;;;62.03;42.67;;;;;;;;;;5013337;28;20381;-74
2022/05/20 04:50:16;;;;;;;59.70;41.30;;;;;;;;;;5007748;28;20218;-74
2022/05/20 04:52:42;;;;;;;59.35;41.85;;;;;;;;;;5010552;28;20565;-74
2022/05/20 04:55:08;;;;;;;60.10;41.35;;;;;;;;;;5010205;28;20233;-74
2022/05/20 04:57:36;;;;;;;64.40;46.10;;;;;;;;;;5010329;28;20298;-72
2022/05/20 05:00:05;;;;;;;64.25;43.78;;;;;;;;;;5008104;28;20554;-72
2022/05/20 05:02:31;;;;;;;50.55;40.80;;;;;;;;;;4998345;28;20644;-72
2022/05/20 05:04:56;;;;;;;57.35;42.10;;;;;;;;;;5018357;28;20183;-74
2022/05/20 05:07:21;;;;;;;54.08;43.88;;;;;;;;;;5016928;28;20210;-72
2022/05/20 05:09:47;;;;;;;64.78;44.50;;;;;;;;;;5013283;28;20178;-73
2022/05/20 05:12:12;;;;;;;61.03;45.38;;;;;;;;;;5015049;28;20207;-72
2022/05/20 05:14:39;;;;;;;51.90;41.83;;;;;;;;;;5028307;28;20185;-72
2022/05/20 05:17:08;;;;;;;65.28;47.33;;;;;;;;;;5015874;28;20176;-74
2022/05/20 05:19:37;;;;;;;59.05;44.67;;;;;;;;;;5026618;28;20178;-73
2022/05/20 05:22:02;;;;;;;58.55;43.35;;;;;;;;;;5013723;28;20625;-74
2022/05/20 05:24:28;;;;;;;51.10;41.60;;;;;;;;;;5015337;28;20653;-74
2022/05/20 05:26:53;;;;;;;51.10;41.70;;;;;;;;;;5013893;28;20214;-74
2022/05/20 05:29:18;;;;;;;52.33;41.47;;;;;;;;;;5015230;28;20686;-74
2022/05/20 05:31:43;;;;;;;53.03;42.87;;;;;;;;;;5029062;28;20259;-72
2022/05/20 05:34:10;;;;;;;47.70;38.45;;;;;;;;;;5015956;28;20420;-72
2022/05/20 05:36:35;;;;;;;43.72;37.72;;;;;;;;;;5021000;28;20176;-72
2022/05/20 05:39:00;;;;;;;47.35;38.00;;;;;;;;;;5011407;28;20664;-72
2022/05/20 05:41:25;;;;;;;45.27;35.63;;;;;;;;;;5012691;28;20572;-74
2022/05/20 05:43:50;;;;;;;41.97;36.13;;;;;;;;;;5013185;28;20450;-73
2022/05/20 05:46:15;;;;;;;39.08;34.63;;;;;;;;;;5018565;28;20928;-74
2022/05/20 05:48:41;;;;;;;40.25;34.80;;;;;;;;;;5014974;28;20183;-74
2022/05/20 05:51:06;;;;;;;42.78;35.78;;;;;;;;;;5016932;28;20332;-74
2022/05/20 05:53:31;;;;;;;36.25;32.45;;;;;;;;;;5030834;28;20206;-73
2022/05/20 05:55:58;;;;;;;37.10;33.05;;;;;;;;;;5016110;28;20178;-73
2022/05/20 05:58:24;;;;;;;34.47;30.80;;;;;;;;;;5023774;28;20190;-73
2022/05/20 06:00:49;;;;;;;32.88;29.33;;;;;;;;;;5014685;28;20579;-74
2022/05/20 06:03:16;;;;;;;27.95;25.08;;;;;;;;;;5015374;28;20202;-73
2022/05/20 06:05:41;;;;;;;27.10;23.33;;;;;;;;;;5014248;28;20197;-73
2022/05/20 06:08:06;;;;;;;23.90;21.23;;;;;;;;;;5003699;28;20591;-73
2022/05/20 06:10:31;;;;;;;26.00;21.45;;;;;;;;;;4999687;28;20249;-72
2022/05/20 06:12:57;;;;;;;26.42;20.45;;;;;;;;;;5011976;28;20206;-73
2022/05/20 06:15:22;;;;;;;22.00;19.08;;;;;;;;;;5003199;28;20432;-71
2022/05/20 06:17:48;;;;;;;22.77;19.55;;;;;;;;;;5008404;28;20277;-71
2022/05/20 06:20:13;;;;;;;21.40;19.17;;;;;;;;;;5015844;28;20171;-72
2022/05/20 06:22:38;;;;;;;19.42;17.42;;;;;;;;;;5016406;28;20689;-72
2022/05/20 06:25:04;;;;;;;19.47;17.27;;;;;;;;;;5008184;28;20696;-72
2022/05/20 06:27:30;;;;;;;18.17;16.33;;;;;;;;;;5012023;28;20458;-72
2022/05/20 06:29:56;;;;;;;17.73;15.38;;;;;;;;;;5013477;28;20266;-72
2022/05/20 06:32:21;;;;;;;17.47;15.57;;;;;;;;;;5014452;28;20297;-72
2022/05/20 06:40:15;;;;;;;16.67;12.95;;;;;;;;;;5001718;28;20189;-72
2022/05/20 06:42:42;;;;;;;13.95;12.35;;;;;;;;;;5010080;28;20179;-70
2022/05/20 06:45:08;;;;;;;14.10;12.05;;;;;;;;;;5014427;28;20177;-71
2022/05/20 06:47:33;;;;;;;14.77;13.13;;;;;;;;;;5021809;28;20266;-70
2022/05/20 06:49:58;;;;;;;14.07;11.68;;;;;;;;;;5028181;28;20191;-70
2022/05/20 06:52:24;;;;;;;15.05;13.23;;;;;;;;;;4998965;28;20296;-70
2022/05/20 06:54:49;;;;;;;14.82;11.80;;;;;;;;;;5019021;28;20242;-71
2022/05/20 06:57:18;;;;;;;13.70;12.30;;;;;;;;;;5010627;28;20175;-71
2022/05/20 06:59:43;;;;;;;12.13;10.98;;;;;;;;;;5013298;28;20558;-71
2022/05/20 07:02:08;;;;;;;12.37;11.03;;;;;;;;;;5012423;28;20203;-71
2022/05/20 07:04:33;;;;;;;12.67;10.93;;;;;;;;;;5012835;28;20474;-71
2022/05/20 07:06:59;;;;;;;12.23;10.67;;;;;;;;;;5034126;28;20424;-71
2022/05/20 07:09:24;;;;;;;11.98;10.88;;;;;;;;;;5004897;28;20430;-70
2022/05/20 07:11:49;;;;;;;12.73;10.65;;;;;;;;;;5003556;28;20221;-71
2022/05/20 07:14:15;;;;;;;11.13;10.03;;;;;;;;;;5025374;28;20216;-71
2022/05/20 07:16:40;;;;;;;13.15;11.70;;;;;;;;;;5031105;28;20470;-70
2022/05/20 07:19:05;;;;;;;13.33;11.47;;;;;;;;;;5016724;28;20219;-70
2022/05/20 07:21:31;;;;;;;13.17;11.80;;;;;;;;;;4999932;28;21214;-71
2022/05/20 07:23:56;;;;;;;12.80;11.50;;;;;;;;;;5006802;28;20512;-71
2022/05/20 07:26:21;;;;;;;13.45;11.98;;;;;;;;;;5013792;28;20175;-71
2022/05/20 07:28:46;;;;;;;12.80;11.57;;;;;;;;;;5015007;28;20595;-71
2022/05/20 07:31:12;;;;;;;13.80;11.27;;;;;;;;;;5012779;28;20437;-71
2022/05/20 07:33:37;;;;;;;12.48;11.27;;;;;;;;;;5016649;28;20206;-71
2022/05/20 07:36:03;;;;;;;15.27;10.90;;;;;;;;;;5010891;28;20197;-70
2022/05/20 07:38:28;;;;;;;13.73;12.05;;;;;;;;;;5009985;28;20404;-70
2022/05/20 07:40:57;;;;;;;13.32;11.38;;;;;;;;;;5007967;28;20747;-71
2022/05/20 07:43:24;;;;;;;10.07;8.18;;;;;;;;;;5016164;28;20231;-71
2022/05/20 07:45:49;;;;;;;10.70;9.60;;;;;;;;;;5013444;28;20187;-70
2022/05/20 07:48:14;;;;;;;14.20;10.50;;;;;;;;;;5016572;28;20538;-71
2022/05/20 07:50:42;;;;;;;13.20;10.98;;;;;;;;;;5011808;28;20214;-71
2022/05/20 07:53:29;;;;;;;12.00;9.10;;;;;;;;;;5013378;28;20205;-71
2022/05/20 07:55:57;;;;;;;10.63;9.50;;;;;;;;;;5011521;28;20173;-71
2022/05/20 07:58:26;;;;;;;10.77;9.77;;;;;;;;;;5017550;28;20183;-71
2022/05/20 08:00:51;;;;;;;11.88;9.75;;;;;;;;;;5011984;28;20736;-71
2022/05/20 08:04:52;;;;;;;10.52;9.57;;;;;;;;;;5011123;28;20222;-71
2022/05/20 08:06:03;;;;;;;12.13;9.32;;;;;;;;;;5003214;28;20199;-71
2022/05/20 08:08:29;;;;;;;15.30;9.77;;;;;;;;;;5009139;28;20181;-70
2022/05/20 08:10:54;;;;;;;10.23;9.10;;;;;;;;;;5010832;28;20568;-71
2022/05/20 08:13:21;;;;;;;8.88;7.97;;;;;;;;;;5012313;28;20276;-71
2022/05/20 08:15:46;;;;;;;9.32;8.27;;;;;;;;;;5011626;28;20180;-71
2022/05/20 08:18:12;;;;;;;8.63;7.50;;;;;;;;;;5024501;28;20162;-71
2022/05/20 08:20:37;;;;;;;9.87;7.50;;;;;;;;;;5010417;28;20754;-71
2022/05/20 08:23:02;;;;;;;13.00;7.70;;;;;;;;;;5010735;28;20415;-71
2022/05/20 08:25:29;;;;;;;9.30;7.90;;;;;;;;;;5011761;28;20409;-71
2022/05/20 08:27:54;;;;;;;9.48;6.57;;;;;;;;;;5009113;28;20209;-71
2022/05/20 08:30:22;;;;;;;7.27;6.40;;;;;;;;;;5012254;28;20634;-71
2022/05/20 08:32:47;;;;;;;8.80;6.95;;;;;;;;;;5012609;28;20460;-71
2022/05/20 08:35:13;;;;;;;7.80;6.97;;;;;;;;;;5015024;28;20175;-70
2022/05/20 08:37:39;;;;;;;10.13;7.57;;;;;;;;;;5016395;28;20514;-71
2022/05/20 08:40:05;;;;;;;8.68;6.80;;;;;;;;;;5009279;28;20174;-71
2022/05/20 08:42:32;;;;;;;7.53;6.80;;;;;;;;;;5026959;28;20554;-71
2022/05/20 08:44:58;;;;;;;6.70;5.95;;;;;;;;;;5014708;28;20206;-71
2022/05/20 08:47:42;;;;;;;8.20;5.97;;;;;;;;;;5027883;28;20234;-71
2022/05/20 08:50:12;;;;;;;8.20;5.53;;;;;;;;;;5015968;28;20190;-71
2022/05/20 08:52:37;;;;;;;10.18;5.25;;;;;;;;;;5013767;28;20217;-71
2022/05/20 08:55:02;;;;;;;7.43;5.07;;;;;;;;;;5011887;28;20262;-71
2022/05/20 08:57:29;;;;;;;9.25;5.85;;;;;;;;;;5016689;28;20324;-71
2022/05/20 08:59:55;;;;;;;9.95;5.82;;;;;;;;;;5012819;28;20722;-71
2022/05/20 09:02:20;;;;;;;7.60;5.57;;;;;;;;;;5014400;28;20207;-71
2022/05/20 09:04:46;;;;;;;7.75;5.82;;;;;;;;;;5011139;28;20175;-71
2022/05/20 09:07:12;;;;;;;8.00;6.85;;;;;;;;;;5009882;28;20187;-71
2022/05/20 09:09:51;;;;;;;9.00;8.10;;;;;;;;;;5016404;28;20187;-71
2022/05/20 09:12:27;;;;;;;8.63;7.30;;;;;;;;;;5009712;28;20282;-71
2022/05/20 09:17:46;;;;;;;7.00;5.95;;;;;;;;;;5007492;28;20261;-71
2022/05/20 09:20:14;;;;;;;6.68;5.72;;;;;;;;;;5006098;28;20207;-71
2022/05/20 09:22:40;;;;;;;6.70;5.88;;;;;;;;;;5010359;28;20179;-71
2022/05/20 09:25:18;;;;;;;9.00;6.15;;;;;;;;;;5012600;28;20176;-71
2022/05/20 09:27:43;;;;;;;10.98;7.03;;;;;;;;;;5014985;28;20175;-71
2022/05/20 09:30:09;;;;;;;6.13;5.53;;;;;;;;;;5020546;28;20229;-71
2022/05/20 09:32:35;;;;;;;6.18;5.57;;;;;;;;;;5015638;28;20456;-72
2022/05/20 09:35:01;;;;;;;7.15;5.90;;;;;;;;;;5012496;28;20171;-71
2022/05/20 09:37:27;;;;;;;10.57;4.82;;;;;;;;;;5015537;28;20179;-71
2022/05/20 09:39:52;;;;;;;6.75;5.13;;;;;;;;;;5009179;28;20179;-71
2022/05/20 09:42:17;;;;;;;7.90;5.93;;;;;;;;;;5013409;28;20210;-71
2022/05/20 09:44:45;;;;;;;7.10;4.83;;;;;;;;;;5011943;28;20661;-71
2022/05/20 09:47:28;;;;;;;8.13;4.90;;;;;;;;;;5018362;28;20546;-71
2022/05/20 09:49:58;;;;;;;7.38;4.60;;;;;;;;;;5009583;28;20179;-71
2022/05/20 09:52:32;;;;;;;6.90;5.00;;;;;;;;;;5018084;28;20211;-71
2022/05/20 09:55:12;;;;;;;6.18;4.20;;;;;;;;;;5008325;28;20175;-71
2022/05/20 09:57:42;;;;;;;8.10;4.97;;;;;;;;;;5009465;28;20232;-71
2022/05/20 10:00:15;;;;;;;7.75;4.70;;;;;;;;;;5009035;28;20175;-71
2022/05/20 10:02:43;;;;;;;5.18;4.43;;;;;;;;;;5031449;28;20175;-71
2022/05/20 10:05:08;;;;;;;8.70;4.80;;;;;;;;;;5013183;28;20691;-71
2022/05/20 10:08:07;;;;;;;4.57;4.13;;;;;;;;;;5017373;28;20183;-71
2022/05/20 10:10:40;;;;;;;6.00;4.75;;;;;;;;;;4999773;28;20839;-71
2022/05/20 10:13:06;;;;;;;6.65;4.47;;;;;;;;;;5011331;28;20230;-71
2022/05/20 10:15:41;;;;;;;4.68;3.83;;;;;;;;;;5010637;28;20183;-71
2022/05/20 10:18:06;;;;;;;5.68;4.75;;;;;;;;;;5016295;28;20191;-71
2022/05/20 10:20:38;;;;;;;6.13;5.53;;;;;;;;;;5020449;28;20255;-71
2022/05/20 10:23:15;;;;;;;9.52;5.32;;;;;;;;;;5017216;28;20183;-71
2022/05/20 10:25:46;;;;;;;8.13;5.07;;;;;;;;;;5014629;28;20590;-71
2022/05/20 10:33:56;;;;;;;8.43;5.28;;;;;;;;;;5004726;28;20642;-71
2022/05/20 10:36:24;;;;;;;6.85;5.22;;;;;;;;;;5010138;28;20265;-71
2022/05/20 10:38:52;;;;;;;8.82;6.35;;;;;;;;;;5011575;28;20266;-72
2022/05/20 10:41:36;;;;;;;10.77;6.05;;;;;;;;;;5017668;28;20611;-71
2022/05/20 10:49:41;;;;;;;9.40;5.32;;;;;;;;;;5015826;28;20624;-71
2022/05/20 10:52:26;;;;;;;5.80;5.20;;;;;;;;;;5013460;28;20217;-71
2022/05/20 10:55:02;;;;;;;9.95;6.93;;;;;;;;;;5011611;28;20190;-72
2022/05/20 10:57:30;;;;;;;7.43;5.95;;;;;;;;;;5021420;28;20304;-71
2022/05/20 11:00:24;;;;;;;8.25;5.18;;;;;;;;;;5013588;28;20186;-71
2022/05/20 11:02:49;;;;;;;9.10;5.60;;;;;;;;;;5005268;28;20278;-71
2022/05/20 11:05:37;;;;;;;8.35;6.18;;;;;;;;;;5013627;28;20309;-71
2022/05/20 11:08:21;;;;;;;8.68;5.57;;;;;;;;;;5013057;28;20186;-71
2022/05/20 11:11:06;;;;;;;7.25;5.72;;;;;;;;;;5012511;28;20238;-70
2022/05/20 11:13:32;;;;;;;7.00;6.15;;;;;;;;;;5012755;28;20298;-71
2022/05/20 11:16:22;;;;;;;9.60;5.55;;;;;;;;;;5012931;28;20600;-71
2022/05/20 11:18:54;;;;;;;8.23;6.07;;;;;;;;;;5011915;28;20496;-70
2022/05/20 11:21:25;;;;;;;9.90;6.20;;;;;;;;;;5017694;28;20221;-70
2022/05/20 11:24:11;;;;;;;9.95;7.30;;;;;;;;;;5014150;28;20185;-70
2022/05/20 11:26:45;;;;;;;9.35;7.13;;;;;;;;;;5013995;28;20191;-71
2022/05/20 11:29:11;;;;;;;8.60;7.00;;;;;;;;;;5026309;28;20178;-71
2022/05/20 11:31:36;;;;;;;9.40;7.90;;;;;;;;;;5013503;28;20690;-71
2022/05/20 11:34:20;;;;;;;10.10;7.73;;;;;;;;;;5012311;28;20202;-71
2022/05/20 11:37:00;;;;;;;9.10;7.28;;;;;;;;;;5013979;28;20210;-70
2022/05/20 11:39:31;;;;;;;7.93;7.05;;;;;;;;;;5011468;28;20210;-71
2022/05/20 11:42:08;;;;;;;7.53;6.70;;;;;;;;;;5010314;28;20693;-71
2022/05/20 11:44:35;;;;;;;10.23;7.90;;;;;;;;;;5008774;28;20258;-70
2022/05/20 11:47:06;;;;;;;9.63;6.70;;;;;;;;;;5008910;28;20237;-70
2022/05/20 11:49:44;;;;;;;7.82;6.30;;;;;;;;;;5012535;28;20171;-71
2022/05/20 11:52:29;;;;;;;7.45;5.53;;;;;;;;;;5011065;28;20214;-70
2022/05/20 11:54:57;;;;;;;10.35;7.20;;;;;;;;;;5011687;28;20210;-70
2022/05/20 11:57:25;;;;;;;10.65;7.43;;;;;;;;;;5011270;28;20189;-70
2022/05/20 12:00:03;;;;;;;9.75;6.82;;;;;;;;;;5011640;28;20178;-70
2022/05/20 12:02:31;;;;;;;8.93;6.95;;;;;;;;;;5009577;28;20206;-71
2022/05/20 12:04:59;;;;;;;14.32;7.40;;;;;;;;;;5010931;28;20564;-70
2022/05/20 12:07:24;;;;;;;9.77;7.22;;;;;;;;;;5012224;28;20242;-71
2022/05/20 12:09:51;;;;;;;11.88;7.57;;;;;;;;;;5010921;28;20195;-70
2022/05/20 12:12:28;;;;;;;8.90;7.30;;;;;;;;;;5009959;28;20210;-71
2022/05/20 12:15:11;;;;;;;11.20;7.53;;;;;;;;;;5010768;28;20186;-72
2022/05/20 12:17:38;;;;;;;12.82;8.65;;;;;;;;;;5014568;28;20245;-72
2022/05/20 12:25:53;;;;;;;11.32;8.20;;;;;;;;;;5017498;28;20194;-72
2022/05/20 12:28:21;;;;;;;14.00;9.73;;;;;;;;;;5013706;28;20726;-72
2022/05/20 12:31:03;;;;;;;16.63;9.98;;;;;;;;;;5006719;28;20288;-72
2022/05/20 12:33:48;;;;;;;11.93;10.63;;;;;;;;;;4997636;28;20210;-72
2022/05/20 12:36:20;;;;;;;15.45;10.65;;;;;;;;;;5010288;28;20648;-72
2022/05/20 12:38:46;;;;;;;13.63;11.63;;;;;;;;;;5014164;28;20186;-73
2022/05/20 12:41:15;;;;;;;15.60;12.48;;;;;;;;;;5008413;28;20679;-72
2022/05/20 12:43:46;;;;;;;13.55;11.98;;;;;;;;;;5010401;28;20179;-73
2022/05/20 12:46:15;;;;;;;14.43;12.20;;;;;;;;;;5012345;28;20205;-74
2022/05/20 12:48:40;;;;;;;15.70;13.75;;;;;;;;;;5007446;28;20317;-72
2022/05/20 12:51:07;;;;;;;17.30;12.70;;;;;;;;;;5023139;28;20460;-73
2022/05/20 12:53:33;;;;;;;14.65;13.10;;;;;;;;;;5016678;28;20455;-73
2022/05/20 12:55:59;;;;;;;16.38;12.90;;;;;;;;;;5015243;28;20178;-72
2022/05/20 12:58:26;;;;;;;18.15;14.60;;;;;;;;;;5011519;28;20217;-71
2022/05/20 13:00:52;;;;;;;19.92;14.77;;;;;;;;;;5016840;28;20690;-71
2022/05/20 13:03:21;;;;;;;16.70;14.73;;;;;;;;;;5014067;28;20261;-72
2022/05/20 13:05:47;;;;;;;18.55;13.80;;;;;;;;;;5011205;28;20205;-72
2022/05/20 13:08:15;;;;;;;14.88;13.15;;;;;;;;;;5010846;28;20649;-72
2022/05/20 13:10:40;;;;;;;15.55;13.90;;;;;;;;;;5010162;28;20444;-73
2022/05/20 13:13:08;;;;;;;17.15;14.18;;;;;;;;;;5013808;28;20211;-72
2022/05/20 13:15:50;;;;;;;16.92;14.10;;;;;;;;;;5028842;28;20183;-72
2022/05/20 13:18:22;;;;;;;19.85;14.50;;;;;;;;;;5013014;28;20182;-72
2022/05/20 13:20:50;;;;;;;21.63;15.85;;;;;;;;;;5022817;28;20213;-72
2022/05/20 13:23:20;;;;;;;27.55;15.18;;;;;;;;;;5035359;28;20645;-71
2022/05/20 13:25:45;;;;;;;24.15;15.82;;;;;;;;;;5021239;28;20270;-72
2022/05/20 13:28:11;;;;;;;17.10;14.53;;;;;;;;;;5014545;28;20266;-72
2022/05/20 13:30:36;;;;;;;17.33;14.55;;;;;;;;;;5017055;28;20452;-72
2022/05/20 13:33:06;;;;;;;17.33;15.52;;;;;;;;;;5014679;28;20199;-72
2022/05/20 13:35:48;;;;;;;20.70;14.50;;;;;;;;;;5026384;28;20198;-71
2022/05/20 13:38:13;;;;;;;16.35;14.23;;;;;;;;;;5013866;28;20565;-73
2022/05/20 13:40:39;;;;;;;19.20;14.53;;;;;;;;;;5015070;28;20202;-73
2022/05/20 13:43:07;;;;;;;18.42;14.38;;;;;;;;;;5017237;28;20432;-73
2022/05/20 13:51:06;;;;;;;18.40;16.00;;;;;;;;;;5019330;28;20275;-74
2022/05/20 13:53:32;;;;;;;19.08;16.05;;;;;;;;;;5019233;28;20201;-73
2022/05/20 13:55:57;;;;;;;20.02;17.80;;;;;;;;;;5020265;28;20636;-72
2022/05/20 13:58:23;;;;;;;20.08;16.63;;;;;;;;;;5013647;28;20182;-72
2022/05/20 14:00:49;;;;;;;16.13;14.43;;;;;;;;;;5018576;28;20201;-72
2022/05/20 14:03:34;;;;;;;17.55;14.98;;;;;;;;;;5020209;28;20254;-72
2022/05/20 14:06:18;;;;;;;18.17;14.07;;;;;;;;;;5015262;28;20194;-72
2022/05/20 14:08:52;;;;;;;17.08;13.73;;;;;;;;;;5016130;28;20261;-72
2022/05/20 14:11:18;;;;;;;17.25;14.27;;;;;;;;;;5029423;28;20218;-72
2022/05/20 14:13:44;;;;;;;21.25;14.45;;;;;;;;;;5035962;28;20722;-72
2022/05/20 14:16:30;;;;;;;17.77;14.07;;;;;;;;;;5014239;28;20175;-73
2022/05/20 14:18:57;;;;;;;18.77;15.15;;;;;;;;;;5019705;28;20185;-73
2022/05/20 14:21:31;;;;;;;18.98;15.63;;;;;;;;;;5019089;28;20203;-72
2022/05/20 14:24:00;;;;;;;20.63;16.75;;;;;;;;;;5015260;28;20186;-72
2022/05/20 14:26:29;;;;;;;19.63;17.13;;;;;;;;;;5019111;28;20191;-72
2022/05/20 14:29:00;;;;;;;28.40;18.40;;;;;;;;;;5018999;28;20174;-72
2022/05/20 14:31:31;;;;;;;23.02;18.95;;;;;;;;;;5019914;28;20292;-73
2022/05/20 14:34:04;;;;;;;25.38;19.90;;;;;;;;;;5003075;28;20297;-70
2022/05/20 14:36:29;;;;;;;20.25;17.83;;;;;;;;;;5007052;28;20174;-70
2022/05/20 14:38:57;;;;;;;27.35;19.42;;;;;;;;;;5023536;28;20914;-73
2022/05/20 14:41:25;;;;;;;24.50;19.38;;;;;;;;;;5010696;28;20649;-73
2022/05/20 14:43:55;;;;;;;23.05;19.23;;;;;;;;;;5011075;28;20179;-73
2022/05/20 14:47:14;;;;;;;27.40;19.25;;;;;;;;;;5015839;28;20564;-72
2022/05/20 14:49:11;;;;;;;16.95;14.98;;;;;;;;;;5005279;28;20275;-71
2022/05/20 14:51:36;;;;;;;12.63;10.50;;;;;;;;;;5012910;28;20211;-71
2022/05/20 14:54:03;;;;;;;9.48;7.75;;;;;;;;;;5013786;28;20208;-71
2022/05/20 14:56:48;;;;;;;8.20;5.97;;;;;;;;;;5013416;28;20262;-71
2022/05/20 14:59:27;;;;;;;8.18;4.82;;;;;;;;;;5020184;28;20194;-72
2022/05/20 15:01:52;;;;;;;8.45;5.28;;;;;;;;;;5028530;28;20191;-72
2022/05/20 15:04:17;;;;;;;7.05;5.75;;;;;;;;;;5022181;28;20179;-71
2022/05/20 15:06:44;;;;;;;7.93;5.90;;;;;;;;;;5022357;28;20178;-71
2022/05/20 15:09:17;;;;;;;8.95;6.18;;;;;;;;;;5010424;28;20408;-71
2022/05/20 15:11:43;;;;;;;9.10;5.85;;;;;;;;;;5011405;28;20285;-72
2022/05/20 15:14:08;;;;;;;7.35;5.53;;;;;;;;;;5014279;28;20302;-71